Time;durP1;ratioP1;P1;durP2;ratioP2;P2;SDS_P1;SDS_P2;PMS_P1;PMS_P2;Temp;Humidity;BMP_temperature;BMP_pressure;BME280_temperature;BME280_humidity;BME280_pressure;Samples;Min_cycle;Max_cycle;Signal;HPM_P1;HPM_P2
2022/12/14 00:01:54;;;;;;;55.13;30.40;;;-5.30;90.00;;;;;;5013256;28;20197;-87
2022/12/14 00:04:20;;;;;;;49.17;28.30;;;-5.30;90.00;;;;;;5013695;28;20308;-87
2022/12/14 00:06:46;;;;;;;55.67;28.77;;;-5.40;89.80;;;;;;5013270;28;20313;-88
2022/12/14 00:09:11;;;;;;;53.90;29.87;;;-5.50;89.70;;;;;;5014297;28;20172;-88
2022/12/14 00:11:37;;;;;;;50.87;29.27;;;-5.60;89.70;;;;;;5012997;28;20606;-87
2022/12/14 00:14:03;;;;;;;51.67;29.27;;;-5.60;89.70;;;;;;5012975;28;20706;-87
2022/12/14 00:16:31;;;;;;;50.10;30.13;;;-5.50;89.70;;;;;;5013329;28;20695;-87
2022/12/14 00:18:59;;;;;;;51.73;29.87;;;-5.60;89.60;;;;;;5012907;28;20216;-87
2022/12/14 00:21:25;;;;;;;54.27;29.90;;;-5.60;89.50;;;;;;5013270;28;20239;-87
2022/12/14 00:23:52;;;;;;;47.83;27.73;;;-5.60;89.50;;;;;;5014202;28;20577;-87
2022/12/14 00:26:31;;;;;;;54.50;29.10;;;-5.70;89.40;;;;;;5012727;28;20201;-87
2022/12/14 00:28:58;;;;;;;48.23;28.57;;;-5.70;89.40;;;;;;5012124;28;20169;-87
2022/12/14 00:31:24;;;;;;;45.27;27.93;;;-5.70;89.40;;;;;;5012575;28;20200;-86
2022/12/14 00:33:50;;;;;;;58.40;32.50;;;-5.70;89.40;;;;;;5012728;28;20184;-87
2022/12/14 00:36:17;;;;;;;61.97;32.50;;;-5.70;89.40;;;;;;5012720;28;20276;-87
2022/12/14 00:38:43;;;;;;;75.10;38.57;;;-5.70;89.50;;;;;;5012588;28;20180;-87
2022/12/14 00:41:09;;;;;;;79.43;37.97;;;-5.60;89.50;;;;;;5013748;28;20173;-87
2022/12/14 00:43:35;;;;;;;88.37;40.17;;;-5.60;89.50;;;;;;5012495;28;20264;-87
2022/12/14 00:46:00;;;;;;;79.20;39.07;;;-5.60;89.50;;;;;;5012383;28;20255;-87
2022/12/14 00:48:26;;;;;;;72.33;36.93;;;-5.50;89.50;;;;;;5013665;28;20307;-86
2022/12/14 00:50:53;;;;;;;68.67;34.07;;;-5.60;89.40;;;;;;5012537;28;20595;-87
2022/12/14 00:53:19;;;;;;;58.70;32.47;;;-5.60;89.40;;;;;;5012356;28;20201;-87
2022/12/14 00:55:47;;;;;;;58.33;30.50;;;-5.70;89.30;;;;;;5013823;28;20201;-87
2022/12/14 00:58:14;;;;;;;49.77;28.20;;;-5.80;89.20;;;;;;5013586;28;20596;-87
2022/12/14 01:00:40;;;;;;;47.97;27.83;;;-5.80;89.20;;;;;;5013582;28;20608;-87
2022/12/14 01:03:06;;;;;;;56.27;29.60;;;-5.90;89.20;;;;;;5012222;28;20287;-87
2022/12/14 01:05:35;;;;;;;45.37;27.50;;;-5.90;89.20;;;;;;5012276;28;20172;-87
2022/12/14 01:08:00;;;;;;;51.87;27.77;;;-5.90;89.20;;;;;;5012163;28;20209;-87
2022/12/14 01:10:26;;;;;;;48.97;27.57;;;-5.90;89.20;;;;;;5012169;28;20170;-87
2022/12/14 01:12:51;;;;;;;49.27;28.17;;;-5.90;89.20;;;;;;5013336;28;20197;-87
2022/12/14 01:15:17;;;;;;;47.70;27.33;;;-6.00;89.20;;;;;;5012048;28;20232;-87
2022/12/14 01:17:43;;;;;;;51.60;30.50;;;-6.00;89.20;;;;;;5012127;28;20232;-87
2022/12/14 01:20:09;;;;;;;52.93;28.20;;;-5.90;89.30;;;;;;5013315;28;20212;-87
2022/12/14 01:22:35;;;;;;;51.13;26.80;;;-6.00;89.20;;;;;;5011924;28;20244;-87
2022/12/14 01:25:01;;;;;;;46.43;27.03;;;-6.00;89.10;;;;;;5012066;28;20173;-87
2022/12/14 01:27:26;;;;;;;50.43;28.13;;;-6.10;89.10;;;;;;5011897;28;20773;-87
2022/12/14 01:29:52;;;;;;;49.13;27.93;;;-6.00;89.10;;;;;;5013495;28;20170;-86
2022/12/14 01:32:18;;;;;;;48.33;27.63;;;-6.00;89.10;;;;;;5011802;28;20269;-87
2022/12/14 01:34:43;;;;;;;45.23;26.60;;;-6.00;89.10;;;;;;5013165;28;20260;-87
2022/12/14 01:37:09;;;;;;;46.53;27.13;;;-6.00;89.00;;;;;;5011903;28;20182;-87
2022/12/14 01:39:34;;;;;;;43.77;28.20;;;-6.20;88.80;;;;;;5011841;28;20184;-87
2022/12/14 01:42:00;;;;;;;45.30;25.77;;;-6.20;88.80;;;;;;5016271;28;20204;-86
2022/12/14 01:44:25;;;;;;;45.77;26.30;;;-6.20;88.80;;;;;;5015733;28;20196;-86
2022/12/14 01:47:10;;;;;;;45.37;26.00;;;-6.30;88.80;;;;;;5015634;28;20268;-86
2022/12/14 01:49:38;;;;;;;46.83;25.63;;;-6.30;88.70;;;;;;5016951;28;20256;-86
2022/12/14 01:52:22;;;;;;;40.10;24.37;;;-6.40;88.70;;;;;;5016892;28;20203;-86
2022/12/14 01:55:02;;;;;;;45.80;26.10;;;-6.30;88.80;;;;;;5017450;28;20164;-86
2022/12/14 01:57:49;;;;;;;48.30;26.17;;;-6.40;88.80;;;;;;5015860;28;20235;-86
2022/12/14 02:00:15;;;;;;;45.67;25.20;;;-6.40;88.70;;;;;;5016837;28;20257;-86
2022/12/14 02:02:48;;;;;;;45.67;27.70;;;-6.40;88.80;;;;;;5015388;28;20213;-86
2022/12/14 02:05:17;;;;;;;45.63;26.90;;;-6.50;88.70;;;;;;5015433;28;20173;-86
2022/12/14 02:07:44;;;;;;;49.50;27.00;;;-6.50;88.70;;;;;;5015251;28;20205;-86
2022/12/14 02:10:10;;;;;;;45.57;25.30;;;-6.50;88.80;;;;;;5015309;28;20177;-86
2022/12/14 02:12:41;;;;;;;47.20;26.70;;;-6.40;88.90;;;;;;5015183;28;20573;-86
2022/12/14 02:15:07;;;;;;;48.83;26.60;;;-6.30;89.00;;;;;;5016778;28;20162;-86
2022/12/14 02:17:33;;;;;;;48.87;26.93;;;-6.30;89.10;;;;;;5016478;28;20182;-86
2022/12/14 02:20:00;;;;;;;46.80;25.50;;;-6.30;89.10;;;;;;5015123;28;20186;-86
2022/12/14 02:22:58;;;;;;;42.33;25.43;;;-6.30;89.10;;;;;;5015082;28;20782;-86
2022/12/14 02:25:38;;;;;;;44.57;25.97;;;-6.30;89.20;;;;;;5016336;28;20168;-86
2022/12/14 02:28:28;;;;;;;44.57;24.17;;;-6.30;89.20;;;;;;5015251;28;20351;-86
2022/12/14 02:31:29;;;;;;;43.43;23.40;;;-6.20;89.30;;;;;;5014854;28;20184;-86
2022/12/14 02:34:08;;;;;;;46.43;22.87;;;-6.20;89.40;;;;;;5016148;28;20165;-86
2022/12/14 02:36:44;;;;;;;45.37;25.47;;;-6.30;89.30;;;;;;5016101;28;20165;-86
2022/12/14 02:39:37;;;;;;;49.33;25.53;;;-6.30;89.30;;;;;;5014862;28;20193;-86
2022/12/14 02:42:24;;;;;;;41.83;24.13;;;-6.30;89.30;;;;;;5014625;28;20259;-86
2022/12/14 02:45:01;;;;;;;42.53;24.37;;;-6.40;89.20;;;;;;5014748;28;20172;-86
2022/12/14 02:48:00;;;;;;;43.60;24.13;;;-6.50;89.10;;;;;;5014656;28;20274;-86
2022/12/14 02:50:39;;;;;;;45.97;23.87;;;-6.50;89.10;;;;;;5015882;28;20199;-86
2022/12/14 02:53:18;;;;;;;43.37;24.90;;;-6.50;89.10;;;;;;5014909;28;20200;-86
2022/12/14 02:55:50;;;;;;;42.20;24.33;;;-6.50;89.00;;;;;;5014676;28;20176;-86
2022/12/14 02:58:24;;;;;;;39.63;24.30;;;-6.50;89.10;;;;;;5015784;28;20165;-86
2022/12/14 03:00:52;;;;;;;44.23;23.90;;;-6.50;89.10;;;;;;5015001;28;20181;-86
2022/12/14 03:03:17;;;;;;;46.10;24.13;;;-6.50;89.10;;;;;;5015621;28;20232;-87
2022/12/14 03:05:57;;;;;;;42.03;23.97;;;-6.50;89.10;;;;;;5015554;28;20181;-87
2022/12/14 03:08:24;;;;;;;45.47;25.33;;;-6.40;89.20;;;;;;5014312;28;20216;-87
2022/12/14 03:11:00;;;;;;;41.83;23.63;;;-6.40;89.20;;;;;;5015556;28;20178;-86
2022/12/14 03:13:36;;;;;;;38.87;23.00;;;-6.50;89.20;;;;;;5014108;28;20285;-86
2022/12/14 03:16:15;;;;;;;45.60;23.47;;;-6.50;89.10;;;;;;5015392;28;20161;-86
2022/12/14 03:18:48;;;;;;;43.43;24.60;;;-6.50;89.20;;;;;;5014068;28;20166;-86
2022/12/14 03:21:24;;;;;;;36.93;24.20;;;-6.50;89.10;;;;;;5015351;28;20619;-86
2022/12/14 03:23:51;;;;;;;40.60;23.87;;;-6.50;89.10;;;;;;5015353;28;20157;-86
2022/12/14 03:26:21;;;;;;;37.57;23.47;;;-6.50;89.10;;;;;;5014188;28;20671;-86
2022/12/14 03:28:59;;;;;;;38.13;23.00;;;-6.50;89.10;;;;;;5013892;28;20168;-86
2022/12/14 03:31:49;;;;;;;40.47;22.83;;;-6.50;89.10;;;;;;5013837;28;20165;-86
2022/12/14 03:34:20;;;;;;;45.57;24.47;;;-6.50;89.10;;;;;;5006549;28;20213;-87
2022/12/14 03:36:55;;;;;;;44.93;23.57;;;-6.60;89.00;;;;;;5015015;28;20216;-86
2022/12/14 03:39:27;;;;;;;35.33;23.10;;;-6.60;89.00;;;;;;5013694;28;20169;-86
2022/12/14 03:42:10;;;;;;;38.93;22.93;;;-6.60;89.00;;;;;;5013610;28;20201;-86
2022/12/14 03:44:44;;;;;;;35.70;22.87;;;-6.60;88.90;;;;;;5013662;28;20173;-86
2022/12/14 03:47:16;;;;;;;35.73;21.53;;;-6.60;89.00;;;;;;5014771;28;20307;-87
2022/12/14 03:50:02;;;;;;;39.33;23.47;;;-6.70;88.90;;;;;;5015018;28;20154;-87
2022/12/14 03:52:48;;;;;;;39.67;23.63;;;-6.70;88.90;;;;;;5014763;28;20707;-86
2022/12/14 03:55:24;;;;;;;36.87;22.13;;;-6.60;88.90;;;;;;5014635;28;20166;-86
2022/12/14 03:58:20;;;;;;;39.53;21.33;;;-6.70;88.80;;;;;;5013394;28;20168;-86
2022/12/14 04:00:56;;;;;;;41.70;23.07;;;-6.70;88.80;;;;;;5013263;28;20174;-86
2022/12/14 04:03:30;;;;;;;37.07;21.57;;;-6.80;88.70;;;;;;5014456;28;20280;-86
2022/12/14 04:06:02;;;;;;;36.67;21.13;;;-6.80;88.70;;;;;;5013072;28;20264;-87
2022/12/14 04:09:03;;;;;;;37.93;21.87;;;-6.80;88.70;;;;;;5014687;28;20157;-87
2022/12/14 04:20:15;;;;;;;33.27;21.47;;;-6.80;88.80;;;;;;5014206;28;20227;-86
2022/12/14 04:22:48;;;;;;;38.83;22.23;;;-6.80;88.80;;;;;;5014050;28;20262;-86
2022/12/14 04:31:09;;;;;;;35.47;20.87;;;-6.80;88.60;;;;;;5014336;28;20160;-87
2022/12/14 04:33:45;;;;;;;33.37;20.37;;;-6.80;88.60;;;;;;5014202;28;20165;-86
2022/12/14 04:36:18;;;;;;;38.73;21.30;;;-6.80;88.60;;;;;;5012694;28;20523;-86
2022/12/14 04:38:47;;;;;;;35.90;20.73;;;-6.80;88.50;;;;;;5013915;28;20168;-86
2022/12/14 04:41:19;;;;;;;34.07;20.50;;;-6.80;88.50;;;;;;5012504;28;20276;-86
2022/12/14 04:43:47;;;;;;;36.57;21.83;;;-6.80;88.40;;;;;;5012751;28;20169;-86
2022/12/14 04:46:28;;;;;;;31.90;20.37;;;-6.70;88.40;;;;;;5013678;28;20260;-86
2022/12/14 04:49:08;;;;;;;34.37;19.70;;;-6.80;88.30;;;;;;5012434;28;20260;-86
2022/12/14 04:51:54;;;;;;;31.63;20.03;;;-6.80;88.30;;;;;;5013625;28;20189;-86
2022/12/14 04:54:24;;;;;;;35.13;20.50;;;-6.80;88.20;;;;;;5013220;28;20169;-86
2022/12/14 04:57:20;;;;;;;31.63;19.53;;;-6.80;88.20;;;;;;5012376;28;20189;-86
2022/12/14 04:59:46;;;;;;;38.40;21.70;;;-6.90;88.10;;;;;;5011965;28;20276;-86
2022/12/14 05:02:25;;;;;;;35.20;20.53;;;-6.90;88.20;;;;;;5013415;28;20211;-86
2022/12/14 05:04:56;;;;;;;32.37;19.50;;;-6.90;88.30;;;;;;5012237;28;20653;-86
2022/12/14 05:07:41;;;;;;;35.33;20.77;;;-6.90;88.30;;;;;;5012145;28;20201;-87
2022/12/14 05:10:18;;;;;;;32.33;19.17;;;-6.90;88.30;;;;;;5013357;28;20677;-87
2022/12/14 05:13:05;;;;;;;32.17;19.23;;;-6.90;88.30;;;;;;5012123;28;20201;-87
2022/12/14 05:15:38;;;;;;;32.50;19.53;;;-7.00;88.20;;;;;;5012890;28;20180;-87
2022/12/14 05:18:04;;;;;;;29.20;18.20;;;-7.00;88.20;;;;;;5012221;28;20549;-87
2022/12/14 05:20:30;;;;;;;28.60;19.13;;;-7.00;88.20;;;;;;5013525;28;20188;-87
2022/12/14 05:22:55;;;;;;;30.53;18.27;;;-6.90;88.20;;;;;;5023887;23;20225;-88
2022/12/14 05:25:21;;;;;;;33.10;18.47;;;-6.90;88.20;;;;;;4992439;28;20174;-88
2022/12/14 05:27:46;;;;;;;28.57;18.87;;;-6.90;88.10;;;;;;4992448;28;20213;-89
2022/12/14 05:30:12;;;;;;;32.03;19.77;;;-7.00;88.00;;;;;;4993933;28;20178;-88
2022/12/14 05:32:38;;;;;;;33.40;19.13;;;-7.00;88.00;;;;;;4992501;28;20284;-88
2022/12/14 05:35:05;;;;;;;33.10;19.73;;;-7.00;87.90;;;;;;4993749;28;20205;-89
2022/12/14 05:37:31;;;;;;;29.47;18.70;;;-7.00;87.90;;;;;;4992435;28;20182;-89
2022/12/14 05:39:56;;;;;;;33.87;19.37;;;-7.00;87.90;;;;;;4993516;28;20180;-88
2022/12/14 05:42:22;;;;;;;29.20;18.97;;;-7.00;87.90;;;;;;4992210;28;20201;-89
2022/12/14 05:44:47;;;;;;;32.57;18.93;;;-7.00;87.90;;;;;;4992295;28;20699;-88
2022/12/14 05:47:13;;;;;;;28.13;18.23;;;-6.90;88.10;;;;;;4992279;28;20261;-89
2022/12/14 05:49:39;;;;;;;38.17;19.17;;;-6.90;88.10;;;;;;4992361;28;20170;-88
2022/12/14 05:52:05;;;;;;;30.87;18.50;;;-6.90;88.10;;;;;;4992373;28;20190;-89
2022/12/14 05:54:30;;;;;;;32.47;19.30;;;-7.00;88.10;;;;;;4992326;28;20568;-89
2022/12/14 05:56:56;;;;;;;30.30;19.37;;;-7.00;88.10;;;;;;4992322;28;20236;-88
2022/12/14 05:59:21;;;;;;;28.57;18.60;;;-7.10;88.10;;;;;;4992255;28;20238;-89
2022/12/14 06:01:48;;;;;;;35.77;20.77;;;-7.10;88.10;;;;;;4992636;28;20205;-89
2022/12/14 06:04:15;;;;;;;40.60;22.20;;;-7.20;88.10;;;;;;4992178;28;20235;-88
2022/12/14 06:06:41;;;;;;;30.87;18.63;;;-7.10;88.20;;;;;;4992110;28;20623;-89
2022/12/14 06:09:08;;;;;;;34.17;21.23;;;-7.10;88.30;;;;;;4993334;28;20174;-88
2022/12/14 06:11:37;;;;;;;34.43;21.77;;;-7.10;88.40;;;;;;4992079;28;20644;-88
2022/12/14 06:14:02;;;;;;;35.63;21.63;;;-7.10;88.30;;;;;;4993327;28;20170;-88
2022/12/14 06:16:28;;;;;;;34.03;18.77;;;-7.10;88.30;;;;;;4992086;28;20189;-88
2022/12/14 06:18:59;;;;;;;30.80;19.07;;;-7.10;88.40;;;;;;4991908;28;20174;-89
2022/12/14 06:21:29;;;;;;;29.20;18.90;;;-7.10;88.30;;;;;;4992116;28;20176;-88
2022/12/14 06:23:55;;;;;;;29.07;17.43;;;-7.20;88.30;;;;;;4992190;28;20182;-89
2022/12/14 06:26:21;;;;;;;31.87;19.60;;;-7.20;88.30;;;;;;4991879;28;20182;-89
2022/12/14 06:28:47;;;;;;;27.40;16.90;;;-7.20;88.20;;;;;;4995738;28;20193;-88
2022/12/14 06:31:15;;;;;;;26.83;17.57;;;-7.20;88.10;;;;;;4995554;28;20278;-89
2022/12/14 06:33:41;;;;;;;31.00;18.83;;;-7.20;88.20;;;;;;4995441;28;20194;-88
2022/12/14 06:36:15;;;;;;;25.57;17.17;;;-7.20;88.10;;;;;;4995327;28;20587;-89
2022/12/14 06:38:40;;;;;;;31.50;18.93;;;-7.30;88.00;;;;;;4996655;28;20571;-90
2022/12/14 06:41:09;;;;;;;26.33;17.93;;;-7.30;87.90;;;;;;4996744;28;20187;-89
2022/12/14 06:43:34;;;;;;;27.53;17.70;;;-7.40;87.80;;;;;;4995072;28;20217;-89
2022/12/14 06:46:00;;;;;;;28.87;17.73;;;-7.40;87.80;;;;;;4995236;28;20170;-88
2022/12/14 06:48:25;;;;;;;26.23;18.40;;;-7.50;87.70;;;;;;4995057;28;20703;-89
2022/12/14 06:50:51;;;;;;;31.67;18.50;;;-7.50;87.60;;;;;;4996267;28;20638;-88
2022/12/14 06:53:16;;;;;;;29.27;18.43;;;-7.60;87.50;;;;;;4994904;28;20202;-89
2022/12/14 06:55:42;;;;;;;29.23;18.83;;;-7.60;87.40;;;;;;4994988;28;20177;-89
2022/12/14 06:58:12;;;;;;;28.37;18.10;;;-7.60;87.40;;;;;;4996173;28;20186;-89
2022/12/14 07:00:38;;;;;;;28.10;18.73;;;-7.60;87.40;;;;;;4994865;28;20182;-89
2022/12/14 07:03:03;;;;;;;36.83;32.77;;;-7.60;87.30;;;;;;4994770;28;20221;-89
2022/12/14 07:05:29;;;;;;;36.57;32.20;;;-7.70;87.30;;;;;;4994857;28;20183;-89
2022/12/14 07:07:54;;;;;;;36.30;32.50;;;-7.70;87.10;;;;;;4995735;28;20680;-88
2022/12/14 07:10:20;;;;;;;34.77;31.30;;;-7.80;87.10;;;;;;4995113;28;20185;-90
2022/12/14 07:12:45;;;;;;;37.03;33.10;;;-7.80;87.00;;;;;;4994753;28;20194;-88
2022/12/14 07:15:11;;;;;;;36.47;32.70;;;-7.80;86.90;;;;;;4994674;28;20535;-89
2022/12/14 07:17:37;;;;;;;35.67;31.87;;;-7.80;86.90;;;;;;4994525;28;20185;-89
2022/12/14 07:20:04;;;;;;;40.90;31.13;;;-7.90;86.70;;;;;;4994579;28;20180;-89
2022/12/14 07:22:30;;;;;;;35.53;30.77;;;-7.90;86.60;;;;;;4994262;28;20288;-88
2022/12/14 07:24:55;;;;;;;37.53;30.17;;;-8.00;86.50;;;;;;4994482;28;20190;-88
2022/12/14 07:27:22;;;;;;;31.67;27.20;;;-8.00;86.50;;;;;;4995639;28;20204;-88
2022/12/14 07:29:48;;;;;;;33.33;26.50;;;-7.90;86.60;;;;;;4994431;28;20177;-88
2022/12/14 07:32:13;;;;;;;28.83;23.57;;;-7.90;86.80;;;;;;4994279;28;20707;-88
2022/12/14 07:34:39;;;;;;;30.83;25.33;;;-7.80;86.90;;;;;;4995550;28;20181;-88
2022/12/14 07:37:04;;;;;;;30.63;25.67;;;-7.80;87.20;;;;;;4995457;28;20188;-89
2022/12/14 07:39:30;;;;;;;28.53;25.53;;;-7.70;87.30;;;;;;4993825;28;20182;-89
2022/12/14 07:41:55;;;;;;;32.07;26.17;;;-7.80;87.40;;;;;;4994032;28;20198;-89
2022/12/14 07:44:21;;;;;;;32.53;25.07;;;-7.80;87.50;;;;;;4994168;28;20272;-89
2022/12/14 07:46:46;;;;;;;31.70;27.77;;;-7.80;87.60;;;;;;4994053;28;20221;-89
2022/12/14 07:49:12;;;;;;;34.40;27.37;;;-7.80;87.60;;;;;;4994055;28;20173;-88
2022/12/14 07:51:43;;;;;;;26.17;17.37;;;-7.80;87.60;;;;;;4994003;28;20167;-90
2022/12/14 07:54:09;;;;;;;24.83;16.77;;;-7.80;87.70;;;;;;4995186;28;20504;-89
2022/12/14 07:56:38;;;;;;;29.97;16.47;;;-7.80;87.80;;;;;;4993939;28;20180;-89
2022/12/14 07:59:07;;;;;;;25.20;16.77;;;-7.80;87.90;;;;;;4995175;28;20192;-89
2022/12/14 08:01:35;;;;;;;24.87;16.30;;;-7.70;88.00;;;;;;4993703;28;20218;-89
2022/12/14 08:04:09;;;;;;;27.60;16.73;;;-7.60;88.20;;;;;;4993716;28;20181;-90
2022/12/14 08:06:36;;;;;;;28.63;17.33;;;-7.50;88.30;;;;;;4993665;28;20219;-89
2022/12/14 08:09:02;;;;;;;28.77;16.50;;;-7.40;88.40;;;;;;4994996;28;20209;-89
2022/12/14 08:11:27;;;;;;;28.27;17.87;;;-7.40;88.40;;;;;;4993609;28;20204;-89
2022/12/14 08:13:54;;;;;;;34.67;18.27;;;-7.40;88.40;;;;;;4993683;28;20195;-90
2022/12/14 08:16:20;;;;;;;29.30;16.93;;;-7.40;88.40;;;;;;4993603;28;20224;-89
2022/12/14 08:18:45;;;;;;;26.73;15.80;;;-7.40;88.40;;;;;;4993559;28;20181;-89
2022/12/14 08:21:14;;;;;;;27.63;17.27;;;-7.40;88.30;;;;;;4993380;28;20171;-89
2022/12/14 08:23:40;;;;;;;26.83;16.13;;;-7.50;88.20;;;;;;4993686;28;20209;-90
2022/12/14 08:26:06;;;;;;;28.90;16.20;;;-7.50;88.20;;;;;;4993345;28;20658;-89
2022/12/14 08:28:33;;;;;;;26.73;17.00;;;-7.50;88.10;;;;;;4993296;28;20644;-89
2022/12/14 08:31:17;;;;;;;27.20;15.60;;;-7.40;88.20;;;;;;4993242;28;20188;-89
2022/12/14 08:33:44;;;;;;;26.43;15.67;;;-7.30;88.20;;;;;;4994763;28;20287;-90
2022/12/14 08:36:15;;;;;;;26.80;16.63;;;-7.30;88.10;;;;;;4993188;28;20183;-90
2022/12/14 08:38:41;;;;;;;25.93;16.83;;;-7.30;88.00;;;;;;4993323;28;20547;-89
2022/12/14 08:41:13;;;;;;;25.07;16.27;;;-7.30;87.90;;;;;;4994208;28;20589;-88
2022/12/14 08:43:39;;;;;;;24.63;16.07;;;-7.40;87.90;;;;;;4993139;28;20209;-89
2022/12/14 08:46:06;;;;;;;25.73;16.10;;;-7.30;87.90;;;;;;4993235;28;20199;-90
2022/12/14 08:48:32;;;;;;;26.13;16.80;;;-7.30;87.90;;;;;;4994538;28;20210;-88
2022/12/14 08:51:06;;;;;;;27.77;17.23;;;-7.30;87.90;;;;;;4992404;28;20187;-90
2022/12/14 08:53:32;;;;;;;29.87;16.53;;;-7.20;87.90;;;;;;4994150;28;20193;-89
2022/12/14 08:56:03;;;;;;;28.97;17.63;;;-7.10;88.00;;;;;;4992953;28;20177;-90
2022/12/14 08:58:29;;;;;;;24.93;16.50;;;-7.00;88.00;;;;;;4992818;28;20189;-90
2022/12/14 09:01:07;;;;;;;24.20;16.00;;;-7.00;87.90;;;;;;4992869;28;20268;-90
2022/12/14 09:03:33;;;;;;;26.87;18.17;;;-7.10;87.90;;;;;;4994208;28;20204;-89
2022/12/14 09:06:04;;;;;;;25.87;16.77;;;-7.10;87.90;;;;;;4993332;28;20189;-90
2022/12/14 09:08:31;;;;;;;33.57;17.77;;;-7.00;87.90;;;;;;4993861;28;20585;-91
2022/12/14 09:10:56;;;;;;;26.23;17.77;;;-7.00;88.00;;;;;;4992761;28;20279;-90
2022/12/14 09:13:22;;;;;;;26.83;18.33;;;-6.90;88.00;;;;;;4992561;28;20228;-91
2022/12/14 09:15:59;;;;;;;28.83;16.97;;;-6.80;88.20;;;;;;4992595;28;20182;-90
2022/12/14 09:18:24;;;;;;;30.83;18.63;;;-6.50;88.50;;;;;;4993943;28;20162;-90
2022/12/14 09:20:53;;;;;;;31.57;18.73;;;-6.20;88.90;;;;;;4992674;28;20178;-87
2022/12/14 09:23:23;;;;;;;33.30;18.10;;;-6.00;89.10;;;;;;4992443;28;20214;-92
2022/12/14 09:26:14;;;;;;;38.03;20.23;;;-5.90;89.20;;;;;;4992872;28;20236;-89
2022/12/14 09:28:41;;;;;;;30.63;19.20;;;-5.80;89.30;;;;;;4992674;28;20173;-90
2022/12/14 09:31:10;;;;;;;31.27;19.50;;;-5.80;89.40;;;;;;4992784;28;20178;-91
2022/12/14 09:33:37;;;;;;;36.80;19.50;;;-5.60;89.60;;;;;;4992769;28;20329;-91
2022/12/14 09:36:05;;;;;;;31.53;19.73;;;-5.60;89.70;;;;;;4992525;28;20235;-90
2022/12/14 09:38:32;;;;;;;41.17;21.40;;;-5.60;89.70;;;;;;4992392;28;20209;-90
2022/12/14 09:41:03;;;;;;;34.50;20.40;;;-5.60;89.80;;;;;;4992333;28;20181;-90
2022/12/14 09:43:39;;;;;;;33.83;19.47;;;-5.50;89.80;;;;;;4992768;28;20228;-90
2022/12/14 09:46:40;;;;;;;40.60;19.73;;;-5.50;89.90;;;;;;4992432;28;20554;-89
2022/12/14 09:49:26;;;;;;;34.37;20.30;;;-5.30;90.10;;;;;;4992831;28;20169;-90
2022/12/14 09:51:55;;;;;;;34.00;18.67;;;-5.20;90.10;;;;;;4992705;28;20197;-91
2022/12/14 09:54:28;;;;;;;30.67;19.60;;;-5.20;90.20;;;;;;4992476;28;20228;-91
2022/12/14 09:56:59;;;;;;;35.37;19.33;;;-5.00;90.30;;;;;;4992760;28;20166;-89
2022/12/14 09:59:28;;;;;;;32.17;19.03;;;-5.00;90.30;;;;;;4992415;28;20178;-91
2022/12/14 10:02:12;;;;;;;31.03;19.73;;;-4.90;90.40;;;;;;4993833;28;20198;-91
2022/12/14 10:05:00;;;;;;;34.00;20.20;;;-4.80;90.40;;;;;;4996132;28;20173;-91
2022/12/14 10:07:36;;;;;;;35.27;21.40;;;-4.70;90.40;;;;;;4996010;28;20198;-91
2022/12/14 10:10:38;;;;;;;32.27;20.27;;;-4.60;90.50;;;;;;4997238;28;20605;-90
2022/12/14 10:13:41;;;;;;;35.17;20.87;;;-4.60;90.50;;;;;;4995857;28;20198;-89
2022/12/14 10:16:12;;;;;;;39.17;20.67;;;-4.50;90.60;;;;;;4995808;28;20553;-88
2022/12/14 10:18:47;;;;;;;35.27;20.57;;;-4.40;90.60;;;;;;4995725;28;20174;-90
2022/12/14 10:21:15;;;;;;;33.27;20.60;;;-4.30;90.70;;;;;;4996884;28;20535;-90
2022/12/14 10:23:55;;;;;;;32.07;21.63;;;-4.10;90.60;;;;;;4995410;28;20635;-90
2022/12/14 10:26:25;;;;;;;31.30;19.40;;;-4.10;90.60;;;;;;4997973;28;20170;-90
2022/12/14 10:29:01;;;;;;;29.60;18.43;;;-4.00;90.60;;;;;;5012914;28;20250;-93
2022/12/14 10:31:49;;;;;;;30.43;18.57;;;-3.80;90.70;;;;;;5012516;28;20179;-93
2022/12/14 10:34:18;;;;;;;28.53;17.57;;;-3.60;90.80;;;;;;5011629;28;20171;-92
2022/12/14 10:37:00;;;;;;;28.97;17.37;;;-3.40;90.60;;;;;;5015446;28;20178;-92
2022/12/14 10:39:44;;;;;;;29.47;17.83;;;-3.10;90.20;;;;;;4999828;28;20163;-92
2022/12/14 10:42:25;;;;;;;26.70;17.67;;;-3.10;89.70;;;;;;4996343;28;20243;-90
2022/12/14 10:45:07;;;;;;;23.67;15.37;;;-2.90;89.40;;;;;;4996610;28;20241;-92
2022/12/14 10:47:37;;;;;;;21.20;14.50;;;-2.80;89.00;;;;;;4995188;28;20213;-89
2022/12/14 10:50:26;;;;;;;20.90;14.50;;;-2.70;88.40;;;;;;4997376;28;20166;-91
2022/12/14 10:52:53;;;;;;;21.27;14.87;;;-2.60;87.50;;;;;;4995207;28;20667;-89
2022/12/14 10:55:27;;;;;;;26.47;16.17;;;-2.50;87.00;;;;;;4995397;28;20203;-91
2022/12/14 10:57:52;;;;;;;22.10;14.50;;;-2.40;86.40;;;;;;4995216;28;20167;-91
2022/12/14 11:00:18;;;;;;;20.33;14.23;;;-2.20;85.90;;;;;;4995253;28;20185;-90
2022/12/14 11:02:47;;;;;;;21.57;15.40;;;-2.10;85.10;;;;;;4995094;28;20611;-91
2022/12/14 11:05:34;;;;;;;19.27;15.43;;;-2.10;84.50;;;;;;4995091;28;20270;-92
2022/12/14 11:08:00;;;;;;;18.83;14.83;;;-1.80;84.50;;;;;;4997362;28;20677;-92
2022/12/14 11:10:28;;;;;;;19.83;15.23;;;-1.90;83.50;;;;;;4995668;28;20189;-92
2022/12/14 11:12:57;;;;;;;21.20;14.60;;;-1.60;84.10;;;;;;4994840;28;20232;-90
2022/12/14 11:15:31;;;;;;;24.93;16.57;;;-1.40;84.10;;;;;;4995032;28;20200;-92
2022/12/14 11:18:15;;;;;;;22.77;16.60;;;-1.20;83.80;;;;;;4994917;28;20642;-92
2022/12/14 11:21:00;;;;;;;20.30;15.40;;;-1.10;83.30;;;;;;4995647;28;20194;-92
2022/12/14 11:23:35;;;;;;;22.30;15.83;;;-1.10;83.00;;;;;;5031119;23;20229;-90
2022/12/14 11:26:11;;;;;;;23.37;16.17;;;-0.90;82.80;;;;;;5014386;28;20212;-90
2022/12/14 11:28:52;;;;;;;24.57;17.23;;;-0.80;82.00;;;;;;5015764;28;20190;-88
2022/12/14 11:31:42;;;;;;;24.97;17.63;;;-0.80;81.20;;;;;;5017516;28;20173;-88
2022/12/14 11:34:29;;;;;;;26.30;18.43;;;-0.80;80.90;;;;;;4995120;28;20539;-88
2022/12/14 11:36:54;;;;;;;27.30;18.50;;;-0.60;81.00;;;;;;4995187;28;20648;-88
2022/12/14 11:39:23;;;;;;;27.43;19.30;;;-0.50;80.20;;;;;;4994916;28;20189;-90
2022/12/14 11:42:00;;;;;;;28.17;19.70;;;-0.40;80.10;;;;;;4996664;28;20174;-90
2022/12/14 11:44:29;;;;;;;28.20;20.57;;;-0.40;79.70;;;;;;4995921;28;20240;-90
2022/12/14 11:46:58;;;;;;;24.27;18.73;;;-0.10;79.00;;;;;;4995290;28;20207;-89
2022/12/14 11:49:25;;;;;;;32.80;20.97;;;-0.10;78.40;;;;;;4995459;28;20667;-90
2022/12/14 11:52:12;;;;;;;39.83;24.03;;;0.00;78.60;;;;;;4995548;28;20244;-90
2022/12/14 11:54:43;;;;;;;46.57;27.17;;;0.00;78.20;;;;;;4994296;28;20643;-90
2022/12/14 11:57:38;;;;;;;32.23;22.90;;;0.00;77.50;;;;;;4994430;28;20180;-89
2022/12/14 12:00:19;;;;;;;28.47;22.03;;;0.10;77.60;;;;;;4994304;28;20306;-91
2022/12/14 12:02:49;;;;;;;27.17;20.97;;;0.00;77.50;;;;;;4993990;28;20281;-90
2022/12/14 12:05:21;;;;;;;28.77;21.93;;;0.00;77.00;;;;;;4994978;28;20202;-93
2022/12/14 12:07:49;;;;;;;26.27;20.70;;;-0.10;77.20;;;;;;5018957;28;20204;-94
2022/12/14 12:10:32;;;;;;;26.13;21.37;;;0.10;77.20;;;;;;5019350;28;20189;-94
2022/12/14 12:13:01;;;;;;;29.77;21.37;;;0.10;76.10;;;;;;5019244;28;20212;-92
2022/12/14 12:15:40;;;;;;;28.80;23.27;;;0.10;76.70;;;;;;5019431;28;20161;-94
2022/12/14 12:18:21;;;;;;;29.80;21.63;;;0.10;76.30;;;;;;5019232;28;20167;-94
2022/12/14 12:21:15;;;;;;;27.93;22.27;;;0.30;76.10;;;;;;5018735;28;20177;-92
2022/12/14 12:24:19;;;;;;;25.90;21.60;;;0.30;75.00;;;;;;5017826;28;20235;-94
2022/12/14 12:26:59;;;;;;;26.63;20.97;;;0.20;74.30;;;;;;5011987;28;20230;-93
2022/12/14 12:29:37;;;;;;;28.87;22.00;;;0.30;74.60;;;;;;5019052;28;20182;-93
2022/12/14 12:32:05;;;;;;;27.83;21.27;;;0.20;74.50;;;;;;5019025;28;20185;-93
2022/12/14 12:34:42;;;;;;;23.47;20.40;;;0.10;74.10;;;;;;5018874;28;20248;-93
2022/12/14 12:37:17;;;;;;;25.77;20.93;;;0.10;74.10;;;;;;5019061;28;20169;-92
2022/12/14 12:39:54;;;;;;;23.23;20.40;;;0.20;73.60;;;;;;5019007;28;20236;-93
2022/12/14 12:42:33;;;;;;;24.87;19.97;;;0.20;73.60;;;;;;5018623;28;20236;-94
2022/12/14 12:45:10;;;;;;;22.93;20.30;;;0.20;73.40;;;;;;5018321;28;20158;-93
2022/12/14 12:47:58;;;;;;;26.17;19.37;;;0.40;74.30;;;;;;5018299;28;20222;-95
2022/12/14 12:50:29;;;;;;;21.47;19.17;;;0.50;74.20;;;;;;5018843;28;20173;-95
2022/12/14 12:52:58;;;;;;;24.90;20.07;;;0.30;73.20;;;;;;5018517;28;20253;-92
2022/12/14 12:55:29;;;;;;;23.80;19.70;;;0.30;73.20;;;;;;5018350;28;20157;-93
2022/12/14 12:57:57;;;;;;;25.60;19.87;;;0.30;74.10;;;;;;5018296;28;20157;-94
2022/12/14 13:00:25;;;;;;;27.70;20.80;;;0.40;74.30;;;;;;5018418;28;20310;-93
2022/12/14 13:03:00;;;;;;;23.87;18.30;;;0.50;73.90;;;;;;5017589;28;20273;-94
2022/12/14 13:06:22;;;;;;;27.20;20.53;;;0.50;73.20;;;;;;5017872;28;20163;-95
2022/12/14 13:09:11;;;;;;;26.83;20.87;;;0.50;73.10;;;;;;5017754;28;20166;-93